createdAt,value
2023-08-15T00:01:08.411Z,18.30
2023-08-15T00:03:36.061Z,18.30
2023-08-15T00:06:03.695Z,18.30
2023-08-15T00:08:31.277Z,18.30
2023-08-15T00:10:58.813Z,18.30
2023-08-15T00:13:26.499Z,18.50
2023-08-15T00:15:54.024Z,18.70
2023-08-15T00:18:21.556Z,18.90
2023-08-15T00:20:49.708Z,18.90
2023-08-15T00:23:17.273Z,18.80
2023-08-15T00:25:44.893Z,18.90
2023-08-15T00:28:12.482Z,18.80
2023-08-15T00:30:40.307Z,18.90
2023-08-15T00:33:07.901Z,19.00
2023-08-15T00:35:35.540Z,19.00
2023-08-15T00:38:03.114Z,18.90
2023-08-15T00:40:30.714Z,18.70
2023-08-15T00:42:58.270Z,18.70
2023-08-15T00:45:25.871Z,18.60
2023-08-15T00:47:53.648Z,18.40
2023-08-15T00:50:21.867Z,18.30
2023-08-15T00:52:50.112Z,18.20
2023-08-15T00:55:19.194Z,18.20
2023-08-15T00:57:47.048Z,18.20
2023-08-15T01:00:16.427Z,18.30
2023-08-15T01:02:44.625Z,18.30
2023-08-15T01:05:17.399Z,18.30
2023-08-15T01:07:45.791Z,18.30
2023-08-15T01:10:13.337Z,18.30
2023-08-15T01:13:08.590Z,18.30
2023-08-15T01:15:44.384Z,18.30
2023-08-15T01:18:30.343Z,18.30
2023-08-15T01:21:00.007Z,18.30
2023-08-15T01:23:50.830Z,18.30
2023-08-15T01:26:18.399Z,18.40
2023-08-15T01:28:46.118Z,18.40
2023-08-15T01:31:21.793Z,18.40
2023-08-15T01:34:17.895Z,18.40
2023-08-15T01:36:55.912Z,18.50
2023-08-15T01:39:29.904Z,18.60
2023-08-15T01:42:03.374Z,18.60
2023-08-15T01:44:33.213Z,18.50
2023-08-15T01:47:01.472Z,18.60
2023-08-15T01:49:29.159Z,18.40
2023-08-15T01:51:58.574Z,18.40
2023-08-15T01:54:26.217Z,18.40
2023-08-15T01:56:53.780Z,18.50
2023-08-15T01:59:21.399Z,18.40
2023-08-15T02:01:48.939Z,18.20
2023-08-15T02:04:16.593Z,18.10
2023-08-15T02:06:44.235Z,18.10
2023-08-15T02:09:11.859Z,18.00
2023-08-15T02:11:39.457Z,18.10
2023-08-15T02:14:07.079Z,18.30
2023-08-15T02:16:34.695Z,18.30
2023-08-15T02:19:02.262Z,18.30
2023-08-15T02:21:30.122Z,18.30
2023-08-15T02:23:57.680Z,18.30
2023-08-15T02:26:25.242Z,18.30
2023-08-15T02:28:52.818Z,18.20
2023-08-15T02:31:20.505Z,18.10
2023-08-15T02:33:48.079Z,17.90
2023-08-15T02:36:15.762Z,17.60
2023-08-15T02:38:43.400Z,17.30
2023-08-15T02:41:10.980Z,17.20
2023-08-15T02:43:38.584Z,17.10
2023-08-15T02:46:06.148Z,17.00
2023-08-15T02:48:33.732Z,17.00
2023-08-15T02:51:02.737Z,17.10
2023-08-15T02:53:32.185Z,16.90
2023-08-15T02:55:59.708Z,16.90
2023-08-15T02:58:27.341Z,16.80
2023-08-15T03:00:54.915Z,16.70
2023-08-15T03:03:22.497Z,16.70
2023-08-15T03:05:50.167Z,16.60
2023-08-15T03:08:17.827Z,16.70
2023-08-15T03:10:45.388Z,16.70
2023-08-15T03:13:13.041Z,16.80
2023-08-15T03:15:40.750Z,16.90
2023-08-15T03:18:08.354Z,17.00
2023-08-15T03:20:36.479Z,17.10
2023-08-15T03:23:04.215Z,17.00
2023-08-15T03:25:31.752Z,17.10
2023-08-15T03:27:59.325Z,17.10
2023-08-15T03:30:27.826Z,17.20
2023-08-15T03:32:55.496Z,17.10
2023-08-15T03:35:23.242Z,17.10
2023-08-15T03:37:50.882Z,17.00
2023-08-15T03:40:18.579Z,17.00
2023-08-15T03:42:46.152Z,16.90
2023-08-15T03:45:13.784Z,16.80
2023-08-15T03:47:41.439Z,16.80
2023-08-15T03:50:09.381Z,16.90
2023-08-15T03:52:37.162Z,16.90
2023-08-15T03:55:06.245Z,16.90
2023-08-15T03:57:33.835Z,16.90
2023-08-15T04:00:01.367Z,16.80
2023-08-15T04:02:28.999Z,16.80
2023-08-15T04:04:56.625Z,16.90
2023-08-15T04:07:24.199Z,16.90
2023-08-15T04:09:51.870Z,16.90
2023-08-15T04:12:19.510Z,16.80
2023-08-15T04:14:47.052Z,16.90
2023-08-15T04:17:14.616Z,16.90
2023-08-15T04:19:42.180Z,16.90
2023-08-15T04:22:09.786Z,17.00
2023-08-15T04:24:37.336Z,17.00
2023-08-15T04:27:07.894Z,17.00
2023-08-15T04:29:35.483Z,16.90
2023-08-15T04:32:03.231Z,16.90
2023-08-15T04:34:30.937Z,17.00
2023-08-15T04:36:58.502Z,17.00
2023-08-15T04:39:26.141Z,17.20
2023-08-15T04:41:53.701Z,17.30
2023-08-15T04:44:21.269Z,17.30
2023-08-15T04:46:50.032Z,17.30
2023-08-15T04:49:18.139Z,17.30
2023-08-15T04:51:45.870Z,17.30
2023-08-15T04:54:13.426Z,17.30
2023-08-15T04:56:40.973Z,17.40
2023-08-15T04:59:08.607Z,17.50
2023-08-15T05:01:36.600Z,17.90
2023-08-15T05:04:04.503Z,17.90
2023-08-15T05:06:33.558Z,18.00
2023-08-15T05:09:01.102Z,18.20
2023-08-15T05:11:28.771Z,18.30
2023-08-15T05:13:56.323Z,18.40
2023-08-15T05:16:23.944Z,18.40
2023-08-15T05:18:51.530Z,18.40
2023-08-15T05:21:19.167Z,18.40
2023-08-15T05:23:46.699Z,18.60
2023-08-15T05:26:14.208Z,18.70
2023-08-15T05:28:41.762Z,18.90
2023-08-15T05:31:09.348Z,19.00
2023-08-15T05:33:36.963Z,18.90
2023-08-15T05:36:04.763Z,18.90
2023-08-15T05:38:32.394Z,19.00
2023-08-15T05:41:00.021Z,19.00
2023-08-15T05:43:27.567Z,19.10
2023-08-15T05:45:55.130Z,19.20
2023-08-15T05:48:22.675Z,19.30
2023-08-15T05:50:50.330Z,19.40
2023-08-15T05:53:17.883Z,19.40
2023-08-15T05:55:45.468Z,19.60
2023-08-15T05:58:13.321Z,19.80
2023-08-15T06:00:42.386Z,19.90
2023-08-15T06:03:10.059Z,20.00
2023-08-15T06:05:37.733Z,20.10
2023-08-15T06:08:05.970Z,20.20
2023-08-15T06:10:33.573Z,20.30
2023-08-15T06:13:01.101Z,20.50
2023-08-15T06:15:28.633Z,20.60
2023-08-15T06:17:56.261Z,20.60
2023-08-15T06:20:23.868Z,20.70
2023-08-15T06:22:51.536Z,20.90
2023-08-15T06:25:19.120Z,21.00
2023-08-15T06:27:46.686Z,21.10
2023-08-15T06:30:14.784Z,21.30
2023-08-15T06:32:42.370Z,21.60
2023-08-15T06:35:10.604Z,21.70
2023-08-15T06:37:38.196Z,21.90
2023-08-15T06:40:09.182Z,22.00
2023-08-15T06:42:36.722Z,22.20
2023-08-15T06:45:12.720Z,22.50
2023-08-15T06:47:41.100Z,22.60
2023-08-15T06:50:09.886Z,22.70
2023-08-15T06:52:38.474Z,22.80
2023-08-15T06:55:08.076Z,23.00
2023-08-15T06:57:36.607Z,23.10
2023-08-15T07:00:08.130Z,23.20
2023-08-15T07:02:35.718Z,23.40
2023-08-15T07:05:05.070Z,23.60
2023-08-15T07:07:32.661Z,23.70
2023-08-15T07:10:00.239Z,23.80
2023-08-15T07:12:27.820Z,24.00
2023-08-15T07:14:55.376Z,24.10
2023-08-15T07:17:23.044Z,24.30
2023-08-15T07:19:50.693Z,24.40
2023-08-15T07:22:18.278Z,24.50
2023-08-15T07:24:46.620Z,24.70
2023-08-15T07:27:14.337Z,24.80
2023-08-15T07:29:41.882Z,25.00
2023-08-15T07:32:12.125Z,25.20
2023-08-15T07:34:42.224Z,25.30
2023-08-15T07:37:09.878Z,25.50
2023-08-15T07:39:37.509Z,25.60
2023-08-15T07:42:05.327Z,25.60
2023-08-15T07:44:32.888Z,25.70
2023-08-15T07:47:00.487Z,25.80
2023-08-15T07:49:28.100Z,25.80
2023-08-15T07:51:57.378Z,26.00
2023-08-15T07:54:24.896Z,26.00
2023-08-15T07:56:52.527Z,26.10
2023-08-15T07:59:20.085Z,26.30
2023-08-15T08:01:47.677Z,26.40
2023-08-15T08:04:15.574Z,26.40
2023-08-15T08:06:43.216Z,26.50
2023-08-15T08:09:10.957Z,26.60
2023-08-15T08:11:39.478Z,26.70
2023-08-15T08:14:07.044Z,26.90
2023-08-15T08:16:34.705Z,27.00
2023-08-15T08:19:02.290Z,27.10
2023-08-15T08:21:29.913Z,27.20
2023-08-15T08:23:57.462Z,27.20
2023-08-15T08:26:24.994Z,27.30
2023-08-15T08:28:52.684Z,27.40
2023-08-15T08:31:21.644Z,27.50
2023-08-15T08:33:49.297Z,27.70
2023-08-15T08:36:16.845Z,27.70
2023-08-15T08:38:44.410Z,27.80
2023-08-15T08:41:12.441Z,27.90
2023-08-15T08:43:41.193Z,28.00
2023-08-15T08:46:10.059Z,28.00
2023-08-15T08:48:39.434Z,28.20
2023-08-15T08:51:08.379Z,28.10
2023-08-15T08:53:36.332Z,28.20
2023-08-15T08:56:04.282Z,28.50
2023-08-15T08:58:33.078Z,28.50
2023-08-15T09:01:04.331Z,28.60
2023-08-15T09:03:33.294Z,28.60
2023-08-15T09:06:01.003Z,28.80
2023-08-15T09:08:28.774Z,28.70
2023-08-15T09:10:56.574Z,28.80
2023-08-15T09:13:27.201Z,28.90
2023-08-15T09:16:00.220Z,29.00
2023-08-15T09:18:34.921Z,29.10
2023-08-15T09:21:06.992Z,29.10
2023-08-15T09:23:34.631Z,29.30
2023-08-15T09:26:17.914Z,29.50
2023-08-15T09:28:46.951Z,29.70
2023-08-15T09:31:14.603Z,29.80
2023-08-15T09:33:43.067Z,29.80
2023-08-15T09:36:11.771Z,29.90
2023-08-15T09:38:40.863Z,29.90
2023-08-15T09:41:13.277Z,30.00
2023-08-15T09:43:54.459Z,30.20
2023-08-15T09:46:23.268Z,30.40
2023-08-15T09:48:52.558Z,30.40
2023-08-15T09:51:20.409Z,30.40
2023-08-15T09:53:48.580Z,30.70
2023-08-15T09:56:18.236Z,30.30
2023-08-15T09:58:46.547Z,30.30
2023-08-15T10:01:16.037Z,30.50
2023-08-15T10:03:45.449Z,30.50
2023-08-15T10:06:14.956Z,30.50
2023-08-15T10:08:45.633Z,30.60
2023-08-15T10:11:13.237Z,30.80
2023-08-15T10:13:41.392Z,30.70
2023-08-15T10:16:16.006Z,30.80
2023-08-15T10:18:58.338Z,30.90
2023-08-15T10:21:28.193Z,30.90
2023-08-15T10:23:56.723Z,30.90
2023-08-15T10:26:25.180Z,31.00
2023-08-15T10:28:52.977Z,31.00
2023-08-15T10:31:41.251Z,31.00
2023-08-15T10:34:12.673Z,31.40
2023-08-15T10:36:43.973Z,31.60
2023-08-15T10:39:15.734Z,31.80
2023-08-15T10:41:43.537Z,31.90
2023-08-15T10:44:11.774Z,31.70
2023-08-15T10:46:40.600Z,31.70
2023-08-15T10:49:12.609Z,31.80
2023-08-15T10:51:42.433Z,31.90
2023-08-15T10:54:12.974Z,32.00
2023-08-15T10:56:42.677Z,31.90
2023-08-15T10:59:16.400Z,31.90
2023-08-15T11:01:48.511Z,31.90
2023-08-15T11:04:24.345Z,31.70
2023-08-15T11:06:54.130Z,31.90
2023-08-15T11:09:32.559Z,32.10
2023-08-15T11:12:09.046Z,32.30
2023-08-15T11:14:36.746Z,32.40
2023-08-15T11:17:04.432Z,32.50
2023-08-15T11:19:34.697Z,33.00
2023-08-15T11:22:03.159Z,33.10
2023-08-15T11:24:34.380Z,33.30
2023-08-15T11:27:03.013Z,33.40
2023-08-15T11:29:30.565Z,33.70
2023-08-15T11:32:02.431Z,33.80
2023-08-15T11:34:30.606Z,34.30
2023-08-15T11:36:58.420Z,34.60
2023-08-15T11:39:26.056Z,35.20
2023-08-15T11:41:54.387Z,34.90
2023-08-15T11:44:23.135Z,34.80
2023-08-15T11:46:54.759Z,34.90
2023-08-15T11:49:24.486Z,35.20
2023-08-15T11:52:07.276Z,35.50
2023-08-15T11:54:35.001Z,35.40
2023-08-15T11:57:02.998Z,35.40
2023-08-15T11:59:34.197Z,35.70
2023-08-15T12:02:02.947Z,36.90
2023-08-15T12:04:35.589Z,37.40
2023-08-15T12:07:03.256Z,38.60
2023-08-15T12:09:32.452Z,38.70
2023-08-15T12:12:00.911Z,37.80
2023-08-15T12:14:32.992Z,37.40
2023-08-15T12:17:06.392Z,37.80
2023-08-15T12:19:34.008Z,37.40
2023-08-15T12:22:01.544Z,38.20
2023-08-15T12:24:29.088Z,39.80
2023-08-15T12:26:56.679Z,39.00
2023-08-15T12:30:10.694Z,36.90
2023-08-15T12:32:11.798Z,36.20
2023-08-15T12:34:40.139Z,36.90
2023-08-15T12:37:07.806Z,38.00
2023-08-15T12:39:35.404Z,37.60
2023-08-15T12:42:03.465Z,37.50
2023-08-15T12:44:31.034Z,38.10
2023-08-15T12:46:58.672Z,37.90
2023-08-15T12:49:26.287Z,38.60
2023-08-15T12:51:53.909Z,38.50
2023-08-15T12:54:21.612Z,37.70
2023-08-15T12:56:49.248Z,37.90
2023-08-15T12:59:17.838Z,38.10
2023-08-15T13:01:45.960Z,37.90
2023-08-15T13:04:14.186Z,38.10
2023-08-15T13:06:44.852Z,38.10
2023-08-15T13:09:12.568Z,37.20
2023-08-15T13:11:41.515Z,38.10
2023-08-15T13:14:09.070Z,39.10
2023-08-15T13:16:36.706Z,40.10
2023-08-15T13:19:04.579Z,39.70
2023-08-15T13:21:32.137Z,39.50
2023-08-15T13:23:59.754Z,39.80
2023-08-15T13:26:27.417Z,40.20
2023-08-15T13:28:55.021Z,40.20
2023-08-15T13:31:22.704Z,39.20
2023-08-15T13:33:50.447Z,39.40
2023-08-15T13:36:18.195Z,39.70
2023-08-15T13:38:45.802Z,40.70
2023-08-15T13:41:14.281Z,40.60
2023-08-15T13:43:42.166Z,40.40
2023-08-15T13:46:11.414Z,39.50
2023-08-15T13:48:41.981Z,39.20
2023-08-15T13:51:21.694Z,39.70
2023-08-15T13:53:50.112Z,39.60
2023-08-15T13:56:18.490Z,39.60
2023-08-15T13:58:46.143Z,39.10
2023-08-15T14:01:13.757Z,38.80
2023-08-15T14:03:41.382Z,39.30
2023-08-15T14:06:09.056Z,39.40
2023-08-15T14:08:36.819Z,39.20
2023-08-15T14:11:05.600Z,39.20
2023-08-15T14:13:34.497Z,39.40
2023-08-15T14:16:02.094Z,39.40
2023-08-15T14:18:29.741Z,39.70
2023-08-15T14:20:57.326Z,40.00
2023-08-15T14:23:25.020Z,40.90
2023-08-15T14:25:52.606Z,40.70
2023-08-15T14:28:20.299Z,40.20
2023-08-15T14:30:47.907Z,40.00
2023-08-15T14:33:16.898Z,39.60
2023-08-15T14:35:44.523Z,39.70
2023-08-15T14:38:12.181Z,39.60
2023-08-15T14:40:39.828Z,39.00
2023-08-15T14:43:07.395Z,38.60
2023-08-15T14:45:35.182Z,38.50
2023-08-15T14:48:02.873Z,38.70
2023-08-15T14:50:30.795Z,38.60
2023-08-15T14:52:58.652Z,39.00
2023-08-15T14:55:26.319Z,39.50
2023-08-15T14:57:55.875Z,39.90
2023-08-15T15:00:23.556Z,40.10
2023-08-15T15:02:51.417Z,39.10
2023-08-15T15:05:19.204Z,38.30
2023-08-15T15:07:47.319Z,38.00
2023-08-15T15:10:14.931Z,37.40
2023-08-15T15:12:42.748Z,37.20
2023-08-15T15:15:10.694Z,36.40
2023-08-15T15:17:38.386Z,36.90
2023-08-15T15:20:08.041Z,37.10
2023-08-15T15:22:35.786Z,37.50
2023-08-15T15:25:03.594Z,38.20
2023-08-15T15:27:31.158Z,38.20
2023-08-15T15:29:58.715Z,37.60
2023-08-15T15:32:26.444Z,37.50
2023-08-15T15:34:53.966Z,37.20
2023-08-15T15:37:22.753Z,37.50
2023-08-15T15:39:51.597Z,36.70
2023-08-15T15:42:19.417Z,36.90
2023-08-15T15:44:47.145Z,37.40
2023-08-15T15:47:14.753Z,37.10
2023-08-15T15:49:42.376Z,36.90
2023-08-15T15:52:09.944Z,36.50
2023-08-15T15:54:37.759Z,36.50
2023-08-15T15:57:06.247Z,37.00
2023-08-15T15:59:33.896Z,36.60
2023-08-15T16:02:01.558Z,36.40
2023-08-15T16:04:29.214Z,36.40
2023-08-15T16:06:57.764Z,36.50
2023-08-15T16:09:25.347Z,36.50
2023-08-15T16:11:52.969Z,36.50
2023-08-15T16:14:20.573Z,36.80
2023-08-15T16:16:48.265Z,37.20
2023-08-15T16:19:18.140Z,36.70
2023-08-15T16:21:45.710Z,35.90
2023-08-15T16:24:13.254Z,35.40
2023-08-15T16:26:41.297Z,35.30
2023-08-15T16:29:08.899Z,35.40
2023-08-15T16:31:36.622Z,35.60
2023-08-15T16:34:04.299Z,36.30
2023-08-15T16:36:31.875Z,36.40
2023-08-15T16:38:59.827Z,35.60
2023-08-15T16:41:27.550Z,36.00
2023-08-15T16:43:56.875Z,35.60
2023-08-15T16:46:24.899Z,35.90
2023-08-15T16:48:52.476Z,35.80
2023-08-15T16:51:20.075Z,34.70
2023-08-15T16:53:47.794Z,35.10
2023-08-15T16:56:16.516Z,35.40
2023-08-15T16:58:46.102Z,34.80
2023-08-15T17:01:16.673Z,34.80
2023-08-15T17:03:44.376Z,34.90
2023-08-15T17:06:13.176Z,35.10
2023-08-15T17:08:40.782Z,35.20
2023-08-15T17:11:08.444Z,35.10
2023-08-15T17:13:36.143Z,34.50
2023-08-15T17:16:03.702Z,34.70
2023-08-15T17:18:31.252Z,35.00
2023-08-15T17:20:58.921Z,35.40
2023-08-15T17:23:26.710Z,35.00
2023-08-15T17:25:54.239Z,35.10
2023-08-15T17:28:21.851Z,35.20
2023-08-15T17:30:49.510Z,35.00
2023-08-15T17:33:17.091Z,34.70
2023-08-15T17:35:44.938Z,34.00
2023-08-15T17:38:12.676Z,33.20
2023-08-15T17:40:40.394Z,32.80
2023-08-15T17:43:08.053Z,32.40
2023-08-15T17:45:40.338Z,32.10
2023-08-15T17:48:08.240Z,31.70
2023-08-15T17:50:35.975Z,31.10
2023-08-15T17:53:03.623Z,30.40
2023-08-15T17:55:31.240Z,29.70
2023-08-15T17:57:58.854Z,29.00
2023-08-15T18:00:27.974Z,28.40
2023-08-15T18:02:56.720Z,27.90
2023-08-15T18:05:25.764Z,27.40
2023-08-15T18:07:53.381Z,27.10
2023-08-15T18:10:21.047Z,26.80
2023-08-15T18:12:48.741Z,26.50
2023-08-15T18:15:16.363Z,26.20
2023-08-15T18:17:43.989Z,26.10
2023-08-15T18:20:12.066Z,25.90
2023-08-15T18:22:39.858Z,25.70
2023-08-15T18:25:07.954Z,25.50
2023-08-15T18:27:35.954Z,25.40
2023-08-15T18:30:03.934Z,25.40
2023-08-15T18:32:31.661Z,25.30
2023-08-15T18:34:59.362Z,25.20
2023-08-15T18:37:27.002Z,24.90
2023-08-15T18:39:54.606Z,24.70
2023-08-15T18:42:22.407Z,24.50
2023-08-15T18:44:50.178Z,24.40
2023-08-15T18:47:17.877Z,24.20
2023-08-15T18:49:45.459Z,24.10
2023-08-15T18:52:13.230Z,23.90
2023-08-15T18:54:40.759Z,23.90
2023-08-15T18:57:08.323Z,23.80
2023-08-15T18:59:35.875Z,23.80
2023-08-15T19:02:03.473Z,23.80
2023-08-15T19:04:31.101Z,23.80
2023-08-15T19:06:59.067Z,23.70
2023-08-15T19:09:26.691Z,23.60
2023-08-15T19:11:54.282Z,23.50
2023-08-15T19:14:22.235Z,23.50
2023-08-15T19:16:50.030Z,23.40
2023-08-15T19:19:17.627Z,23.40
2023-08-15T19:21:45.351Z,23.30
2023-08-15T19:24:14.703Z,23.20
2023-08-15T19:26:42.425Z,23.20
2023-08-15T19:29:09.965Z,23.10
2023-08-15T19:31:37.610Z,23.10
2023-08-15T19:34:05.390Z,23.10
2023-08-15T19:36:32.917Z,23.10
2023-08-15T19:39:00.492Z,23.00
2023-08-15T19:41:28.142Z,23.00
2023-08-15T19:43:59.689Z,23.00
2023-08-15T19:46:27.296Z,23.00
2023-08-15T19:48:54.899Z,23.00
2023-08-15T19:51:23.413Z,23.00
2023-08-15T19:53:51.582Z,22.90
2023-08-15T19:56:19.104Z,22.80
2023-08-15T19:58:46.716Z,22.70
2023-08-15T20:01:14.339Z,22.70
2023-08-15T20:03:42.049Z,22.60
2023-08-15T20:06:09.662Z,22.50
2023-08-15T20:08:37.322Z,22.40
2023-08-15T20:11:05.668Z,22.40
2023-08-15T20:13:33.262Z,22.40
2023-08-15T20:16:00.900Z,22.50
2023-08-15T20:18:28.537Z,22.40
2023-08-15T20:20:56.305Z,22.30
2023-08-15T20:23:23.942Z,22.20
2023-08-15T20:25:52.904Z,22.10
2023-08-15T20:28:20.548Z,22.10
2023-08-15T20:30:48.217Z,22.00
2023-08-15T20:33:15.930Z,22.00
2023-08-15T20:35:43.594Z,21.90
2023-08-15T20:38:11.162Z,21.80
2023-08-15T20:40:39.696Z,21.70
2023-08-15T20:43:07.345Z,21.70
2023-08-15T20:45:35.003Z,21.60
2023-08-15T20:48:02.634Z,21.50
2023-08-15T20:50:30.202Z,21.40
2023-08-15T20:52:58.078Z,21.30
2023-08-15T20:55:25.691Z,21.30
2023-08-15T20:57:53.464Z,21.20
2023-08-15T21:00:21.169Z,21.10
2023-08-15T21:02:49.135Z,21.20
2023-08-15T21:05:16.863Z,21.20
2023-08-15T21:07:44.389Z,21.20
2023-08-15T21:10:11.967Z,21.20
2023-08-15T21:12:39.648Z,21.20
2023-08-15T21:15:08.066Z,21.20
2023-08-15T21:17:36.386Z,21.20
2023-08-15T21:20:05.087Z,21.10
2023-08-15T21:22:34.182Z,21.10
2023-08-15T21:25:02.137Z,21.00
2023-08-15T21:27:29.751Z,21.00
2023-08-15T21:29:57.349Z,21.00
2023-08-15T21:32:24.854Z,21.00
2023-08-15T21:34:52.466Z,21.00
2023-08-15T21:37:20.285Z,20.90
2023-08-15T21:39:48.238Z,20.90
2023-08-15T21:42:15.777Z,20.80
2023-08-15T21:44:43.449Z,20.80
2023-08-15T21:47:11.501Z,20.70
2023-08-15T21:49:39.093Z,20.70
2023-08-15T21:52:06.942Z,20.60
2023-08-15T21:54:34.536Z,20.50
2023-08-15T21:57:06.588Z,20.50
2023-08-15T21:59:34.674Z,20.60
2023-08-15T22:02:02.491Z,20.50
2023-08-15T22:04:30.206Z,20.50
2023-08-15T22:06:57.934Z,20.40
2023-08-15T22:09:25.618Z,20.40
2023-08-15T22:11:53.260Z,20.30
2023-08-15T22:14:22.965Z,20.30
2023-08-15T22:16:50.603Z,20.30
2023-08-15T22:19:18.301Z,20.30
2023-08-15T22:21:45.966Z,20.30
2023-08-15T22:24:13.609Z,20.20
2023-08-15T22:26:41.177Z,20.20
2023-08-15T22:29:09.736Z,20.20
2023-08-15T22:31:37.391Z,20.10
2023-08-15T22:34:05.353Z,20.00
2023-08-15T22:36:34.225Z,20.00
2023-08-15T22:39:01.895Z,20.00
2023-08-15T22:41:29.457Z,19.90
2023-08-15T22:43:56.988Z,19.80
2023-08-15T22:46:24.582Z,19.80
2023-08-15T22:48:52.226Z,19.60
2023-08-15T22:51:19.820Z,19.60
2023-08-15T22:53:47.663Z,19.60
2023-08-15T22:56:15.291Z,19.60
2023-08-15T22:58:42.839Z,19.50
2023-08-15T23:01:10.555Z,19.40
2023-08-15T23:03:38.368Z,19.40
2023-08-15T23:06:07.628Z,19.30
2023-08-15T23:08:35.297Z,19.20
2023-08-15T23:11:03.648Z,19.10
2023-08-15T23:13:31.258Z,19.10
2023-08-15T23:15:58.873Z,19.10
2023-08-15T23:18:26.683Z,19.20
2023-08-15T23:20:54.246Z,19.30
2023-08-15T23:23:21.820Z,19.40
2023-08-15T23:25:49.434Z,19.40
2023-08-15T23:28:17.094Z,19.30
2023-08-15T23:30:44.855Z,19.30
2023-08-15T23:33:14.568Z,19.40
2023-08-15T23:35:42.152Z,19.30
2023-08-15T23:38:09.779Z,19.30
2023-08-15T23:40:37.333Z,19.40
2023-08-15T23:43:05.319Z,19.30
2023-08-15T23:45:33.155Z,19.30
2023-08-15T23:48:00.785Z,19.40
2023-08-15T23:50:28.417Z,19.40
2023-08-15T23:52:57.128Z,19.30
2023-08-15T23:55:24.688Z,19.20
2023-08-15T23:57:52.283Z,19.30
